Time;durP1;ratioP1;P1;durP2;ratioP2;P2;SDS_P1;SDS_P2;PMS_P1;PMS_P2;Temp;Humidity;BMP_temperature;BMP_pressure;BME280_temperature;BME280_humidity;BME280_pressure;Samples;Min_cycle;Max_cycle;Signal;HPM_P1;HPM_P2
2022/05/09 00:01:42;;;;;;;;;;;;;;;;;;5081848;28;1268;-76
2022/05/09 00:04:07;;;;;;;;;;;;;;;;;;5104971;28;1192;-75
2022/05/09 00:06:33;;;;;;;;;;;;;;;;;;5089223;28;1893;-75
2022/05/09 00:08:58;;;;;;;;;;;;;;;;;;5082780;28;1120;-75
2022/05/09 00:11:23;;;;;;;;;;;;;;;;;;5078285;28;1298;-75
2022/05/09 00:13:49;;;;;;;;;;;;;;;;;;5106314;28;1234;-74
2022/05/09 00:16:15;;;;;;;;;;;;;;;;;;5085339;28;1138;-75
2022/05/09 00:18:40;;;;;;;;;;;;;;;;;;5085044;28;1247;-74
2022/05/09 00:21:05;;;;;;;;;;;;;;;;;;5085265;28;1175;-74
2022/05/09 00:23:31;;;;;;;;;;;;;;;;;;5082365;28;1089;-75
2022/05/09 00:25:57;;;;;;;;;;;;;;;;;;5079878;28;1959;-75
2022/05/09 00:28:23;;;;;;;;;;;;;;;;;;5080990;28;1130;-75
2022/05/09 00:30:49;;;;;;;;;;;;;;;;;;5066933;28;1263;-75
2022/05/09 00:33:15;;;;;;;;;;;;;;;;;;5082980;28;1267;-74
2022/05/09 00:35:44;;;;;;;;;;;;;;;;;;5066381;28;1368;-75
2022/05/09 00:38:09;;;;;;;;;;;;;;;;;;5082397;28;1267;-75
2022/05/09 00:40:39;;;;;;;;;;;;;;;;;;5083067;28;1238;-75
2022/05/09 00:43:24;;;;;;;;;;;;;;;;;;5081770;28;1293;-74
2022/05/09 00:45:52;;;;;;;;;;;;;;;;;;5085003;28;1914;-74
2022/05/09 00:48:18;;;;;;;;;;;;;;;;;;5083529;28;1306;-75
2022/05/09 00:50:44;;;;;;;;;;;;;;;;;;5084440;28;1211;-75
2022/05/09 00:53:11;;;;;;;;;;;;;;;;;;5101232;28;1215;-73
2022/05/09 00:56:00;;;;;;;;;;;;;;;;;;5095209;28;1135;-73
2022/05/09 00:58:28;;;;;;;;;;;;;;;;;;5082909;28;1437;-74
2022/05/09 01:00:54;;;;;;;;;;;;;;;;;;5084765;28;1167;-75
2022/05/09 01:03:38;;;;;;;;;;;;;;;;;;5084679;28;1203;-75
2022/05/09 01:06:03;;;;;;;;;;;;;;;;;;5082765;28;1951;-75
2022/05/09 01:08:31;;;;;;;;;;;;;;;;;;5077196;28;1069;-74
2022/05/09 01:11:01;;;;;;;;;;;;;;;;;;5081811;28;1139;-74
2022/05/09 01:13:30;;;;;;;;;;;;;;;;;;5080656;28;1210;-74
2022/05/09 01:15:56;;;;;;;;;;;;;;;;;;5083601;28;1270;-74
2022/05/09 01:18:25;;;;;;;;;;;;;;;;;;5083660;28;1546;-75
2022/05/09 01:20:51;;;;;;;;;;;;;;;;;;5084379;28;1198;-75
2022/05/09 01:23:17;;;;;;;;;;;;;;;;;;5063654;28;1417;-75
2022/05/09 01:25:43;;;;;;;;;;;;;;;;;;5063177;28;1255;-76
2022/05/09 01:28:09;;;;;;;;;;;;;;;;;;5080832;28;1882;-76
2022/05/09 01:30:40;;;;;;;;;;;;;;;;;;5066273;28;1336;-74
2022/05/09 01:33:05;;;;;;;;;;;;;;;;;;5082986;28;1378;-74
2022/05/09 01:35:30;;;;;;;;;;;;;;;;;;5089672;28;1144;-74
2022/05/09 01:38:08;;;;;;;;;;;;;;;;;;5089234;28;1064;-73
2022/05/09 01:40:37;;;;;;;;;;;;;;;;;;5086521;28;1476;-74
2022/05/09 01:43:03;;;;;;;;;;;;;;;;;;5094188;28;1123;-74
2022/05/09 01:45:31;;;;;;;;;;;;;;;;;;5105656;28;1198;-73
2022/05/09 01:50:41;;;;;;;;;;;;;;;;;;5107375;28;1003;-74
2022/05/09 01:53:10;;;;;;;;;;;;;;;;;;5089100;28;1252;-76
2022/05/09 01:55:44;;;;;;;;;;;;;;;;;;5107706;28;1142;-74
2022/05/09 01:58:10;;;;;;;;;;;;;;;;;;5104541;28;1306;-74
2022/05/09 02:00:35;;;;;;;;;;;;;;;;;;5087184;28;1235;-74
2022/05/09 02:03:00;;;;;;;;;;;;;;;;;;5084806;28;1170;-75
2022/05/09 02:05:32;;;;;;;;;;;;;;;;;;5086371;28;1203;-75
2022/05/09 02:07:57;;;;;;;;;;;;;;;;;;5069566;28;1914;-75
2022/05/09 02:10:30;;;;;;;;;;;;;;;;;;5085738;28;1168;-75
2022/05/09 02:12:56;;;;;;;;;;;;;;;;;;5101386;28;1217;-75
2022/05/09 02:15:21;;;;;;;;;;;;;;;;;;5108341;28;1286;-75
2022/05/09 02:17:47;;;;;;;;;;;;;;;;;;5104596;28;1168;-73
2022/05/09 02:20:13;;;;;;;;;;;;;;;;;;5106376;28;1109;-74
2022/05/09 02:22:38;;;;;;;;;;;;;;;;;;5107954;28;1263;-75
2022/05/09 02:25:26;;;;;;;;;;;;;;;;;;5110547;28;1160;-74
2022/05/09 02:27:49;;;;;;;;;;;;;;;;;;5100326;28;1958;-74
2022/05/09 02:30:14;;;;;;;;;;;;;;;;;;5108324;28;1043;-75
2022/05/09 02:32:39;;;;;;;;;;;;;;;;;;5088438;28;1292;-75
2022/05/09 02:35:05;;;;;;;;;;;;;;;;;;5089986;28;1300;-74
2022/05/09 02:37:30;;;;;;;;;;;;;;;;;;5104285;28;1307;-73
2022/05/09 02:39:55;;;;;;;;;;;;;;;;;;5105164;28;1365;-73
2022/05/09 02:42:21;;;;;;;;;;;;;;;;;;5086123;28;1394;-74
2022/05/09 02:44:46;;;;;;;;;;;;;;;;;;5105296;28;1237;-74
2022/05/09 02:47:11;;;;;;;;;;;;;;;;;;5105671;28;1976;-75
2022/05/09 02:49:36;;;;;;;;;;;;;;;;;;5106203;28;1213;-75
2022/05/09 02:52:04;;;;;;;;;;;;;;;;;;5106803;28;1140;-75
2022/05/09 02:54:30;;;;;;;;;;;;;;;;;;5074971;28;1234;-75
2022/05/09 02:56:55;;;;;;;;;;;;;;;;;;5082986;28;1238;-75
2022/05/09 02:59:20;;;;;;;;;;;;;;;;;;5085347;28;1299;-73
2022/05/09 03:01:46;;;;;;;;;;;;;;;;;;5095497;28;1338;-74
2022/05/09 03:06:57;;;;;;;;;;;;;;;;;;5106353;28;1947;-74
2022/05/09 03:09:22;;;;;;;;;;;;;;;;;;5103770;28;1282;-74
2022/05/09 03:11:48;;;;;;;;;;;;;;;;;;5094206;28;1140;-74
2022/05/09 03:14:13;;;;;;;;;;;;;;;;;;5085514;28;1089;-74
2022/05/09 03:16:38;;;;;;;;;;;;;;;;;;5084986;28;1327;-74
2022/05/09 03:19:03;;;;;;;;;;;;;;;;;;5084955;28;1308;-74
2022/05/09 03:21:30;;;;;;;;;;;;;;;;;;5084871;28;1254;-75
2022/05/09 03:23:55;;;;;;;;;;;;;;;;;;5081884;28;1132;-75
2022/05/09 03:26:21;;;;;;;;;;;;;;;;;;5081260;28;1961;-75
2022/05/09 03:28:46;;;;;;;;;;;;;;;;;;5097745;28;1270;-74
2022/05/09 03:31:13;;;;;;;;;;;;;;;;;;5086716;28;1142;-74
2022/05/09 03:33:39;;;;;;;;;;;;;;;;;;5103850;28;1350;-75
2022/05/09 03:36:04;;;;;;;;;;;;;;;;;;5105866;28;1215;-74
2022/05/09 03:38:31;;;;;;;;;;;;;;;;;;5103394;28;1160;-75
2022/05/09 03:40:59;;;;;;;;;;;;;;;;;;5068198;28;1200;-73
2022/05/09 03:43:25;;;;;;;;;;;;;;;;;;5084369;28;1173;-74
2022/05/09 03:45:52;;;;;;;;;;;;;;;;;;5081969;28;1210;-74
2022/05/09 03:48:17;;;;;;;;;;;;;;;;;;5081759;28;1460;-74
2022/05/09 03:50:42;;;;;;;;;;;;;;;;;;5081570;28;1316;-74
2022/05/09 03:53:08;;;;;;;;;;;;;;;;;;5099102;28;1187;-75
2022/05/09 03:55:42;;;;;;;;;;;;;;;;;;5104003;28;1195;-74
2022/05/09 03:58:08;;;;;;;;;;;;;;;;;;5101519;28;1088;-75
2022/05/09 04:00:35;;;;;;;;;;;;;;;;;;5105578;28;1202;-75
2022/05/09 04:03:01;;;;;;;;;;;;;;;;;;5103159;28;1374;-74
2022/05/09 04:05:30;;;;;;;;;;;;;;;;;;5104639;28;1135;-74
2022/05/09 04:07:57;;;;;;;;;;;;;;;;;;5102793;28;1980;-75
2022/05/09 04:10:28;;;;;;;;;;;;;;;;;;5096553;28;1301;-74
2022/05/09 04:12:53;;;;;;;;;;;;;;;;;;5079345;28;1233;-74
2022/05/09 04:18:03;;;;;;;;;;;;;;;;;;5104692;28;1035;-75
2022/05/09 04:20:29;;;;;;;;;;;;;;;;;;5104688;28;1368;-74
2022/05/09 04:22:56;;;;;;;;;;;;;;;;;;5102346;28;1313;-75
2022/05/09 04:25:22;;;;;;;;;;;;;;;;;;5104128;28;1147;-74
2022/05/09 04:27:48;;;;;;;;;;;;;;;;;;5088059;28;1928;-74
2022/05/09 04:30:15;;;;;;;;;;;;;;;;;;5086363;28;1218;-75
2022/05/09 04:32:41;;;;;;;;;;;;;;;;;;5064906;28;1199;-75
2022/05/09 04:35:14;;;;;;;;;;;;;;;;;;5067701;28;1448;-74
2022/05/09 04:37:42;;;;;;;;;;;;;;;;;;5084539;28;1134;-74
2022/05/09 04:40:08;;;;;;;;;;;;;;;;;;5065665;28;1247;-75
2022/05/09 04:42:34;;;;;;;;;;;;;;;;;;5082368;28;1179;-75
2022/05/09 04:44:59;;;;;;;;;;;;;;;;;;5065750;28;1390;-75
2022/05/09 04:47:24;;;;;;;;;;;;;;;;;;5047040;28;1939;-75
2022/05/09 04:49:49;;;;;;;;;;;;;;;;;;5064355;28;1037;-74
2022/05/09 04:52:15;;;;;;;;;;;;;;;;;;5049165;28;1661;-74
2022/05/09 04:54:41;;;;;;;;;;;;;;;;;;5047456;28;1208;-75
2022/05/09 04:57:07;;;;;;;;;;;;;;;;;;5061753;28;1199;-74
2022/05/09 04:59:32;;;;;;;;;;;;;;;;;;5066647;28;1371;-75
2022/05/09 05:01:57;;;;;;;;;;;;;;;;;;5064480;28;1191;-71
2022/05/09 05:04:22;;;;;;;;;;;;;;;;;;5064112;28;1226;-73
2022/05/09 05:06:48;;;;;;;;;;;;;;;;;;5064249;28;1890;-74
2022/05/09 05:09:16;;;;;;;;;;;;;;;;;;5080143;28;1132;-74
2022/05/09 05:11:44;;;;;;;;;;;;;;;;;;5063125;28;1207;-73
2022/05/09 05:14:10;;;;;;;;;;;;;;;;;;5087489;28;1250;-73
2022/05/09 05:19:19;;;;;;;;;;;;;;;;;;5073009;28;992;-73
2022/05/09 05:21:44;;;;;;;;;;;;;;;;;;5084888;28;1147;-73
2022/05/09 05:24:10;;;;;;;;;;;;;;;;;;5051606;28;1148;-74
2022/05/09 05:26:35;;;;;;;;;;;;;;;;;;5048730;28;1932;-73
2022/05/09 05:29:00;;;;;;;;;;;;;;;;;;5052828;28;1438;-73
2022/05/09 05:31:27;;;;;;;;;;;;;;;;;;5086049;28;1148;-73
2022/05/09 05:33:53;;;;;;;;;;;;;;;;;;5070249;28;1198;-73
2022/05/09 05:36:19;;;;;;;;;;;;;;;;;;5069473;28;1206;-73
2022/05/09 05:38:51;;;;;;;;;;;;;;;;;;5090123;28;1140;-72
2022/05/09 05:41:16;;;;;;;;;;;;;;;;;;5104693;28;1242;-74
2022/05/09 05:43:46;;;;;;;;;;;;;;;;;;5107409;28;1125;-72
2022/05/09 05:46:11;;;;;;;;;;;;;;;;;;5105179;28;1917;-74
2022/05/09 05:48:37;;;;;;;;;;;;;;;;;;5105384;28;1289;-73
2022/05/09 05:51:02;;;;;;;;;;;;;;;;;;5088071;28;1276;-76
2022/05/09 05:53:27;;;;;;;;;;;;;;;;;;5101318;28;1274;-73
2022/05/09 05:55:57;;;;;;;;;;;;;;;;;;5065291;28;1198;-73
2022/05/09 05:58:26;;;;;;;;;;;;;;;;;;5086117;28;1195;-76
2022/05/09 06:00:52;;;;;;;;;;;;;;;;;;5092334;28;1206;-74
2022/05/09 06:03:17;;;;;;;;;;;;;;;;;;5109724;28;1187;-75
2022/05/09 06:05:49;;;;;;;;;;;;;;;;;;5094673;28;1141;-74
2022/05/09 06:08:15;;;;;;;;;;;;;;;;;;5104356;28;1944;-75
2022/05/09 06:10:41;;;;;;;;;;;;;;;;;;5105416;28;1290;-74
2022/05/09 06:13:06;;;;;;;;;;;;;;;;;;5102573;28;1169;-76
2022/05/09 06:15:36;;;;;;;;;;;;;;;;;;5089801;28;1489;-76
2022/05/09 06:18:08;;;;;;;;;;;;;;;;;;5103445;28;1170;-75
2022/05/09 06:20:35;;;;;;;;;;;;;;;;;;5090289;28;1178;-74
2022/05/09 06:23:11;;;;;;;;;;;;;;;;;;5103808;28;1259;-74
2022/05/09 06:25:50;;;;;;;;;;;;;;;;;;5106442;28;1111;-74
2022/05/09 06:28:16;;;;;;;;;;;;;;;;;;5068772;28;1923;-74
2022/05/09 06:30:42;;;;;;;;;;;;;;;;;;5069431;28;1318;-75
2022/05/09 06:33:08;;;;;;;;;;;;;;;;;;5091965;28;1257;-75
2022/05/09 06:35:38;;;;;;;;;;;;;;;;;;5106133;28;1159;-74
2022/05/09 06:38:16;;;;;;;;;;;;;;;;;;5105043;28;1072;-74
2022/05/09 06:40:42;;;;;;;;;;;;;;;;;;5104222;28;1366;-75
2022/05/09 06:43:07;;;;;;;;;;;;;;;;;;5085196;28;1204;-73
2022/05/09 06:45:33;;;;;;;;;;;;;;;;;;5087301;28;1261;-74
2022/05/09 06:47:59;;;;;;;;;;;;;;;;;;5089036;28;1914;-75
2022/05/09 06:50:32;;;;;;;;;;;;;;;;;;5096888;28;1215;-74
2022/05/09 06:52:58;;;;;;;;;;;;;;;;;;5087977;28;1297;-73
2022/05/09 06:55:24;;;;;;;;;;;;;;;;;;5095562;28;1146;-74
2022/05/09 06:57:53;;;;;;;;;;;;;;;;;;5084211;28;1159;-74
2022/05/09 07:00:20;;;;;;;;;;;;;;;;;;5085500;28;1384;-74
2022/05/09 07:02:46;;;;;;;;;;;;;;;;;;5085420;28;1298;-75
2022/05/09 07:05:12;;;;;;;;;;;;;;;;;;5102052;28;1391;-74
2022/05/09 07:07:39;;;;;;;;;;;;;;;;;;5105024;28;1949;-74
2022/05/09 07:10:04;;;;;;;;;;;;;;;;;;5096697;28;1179;-73
2022/05/09 07:12:29;;;;;;;;;;;;;;;;;;5082263;28;1260;-74
2022/05/09 07:14:56;;;;;;;;;;;;;;;;;;5066482;28;1218;-75
2022/05/09 07:17:21;;;;;;;;;;;;;;;;;;5082530;28;1329;-75
2022/05/09 07:19:46;;;;;;;;;;;;;;;;;;5085693;28;1124;-74
2022/05/09 07:22:12;;;;;;;;;;;;;;;;;;5067247;28;1425;-75
2022/05/09 07:24:37;;;;;;;;;;;;;;;;;;5098311;28;1152;-75
2022/05/09 07:27:02;;;;;;;;;;;;;;;;;;5083973;28;1949;-75
2022/05/09 07:29:27;;;;;;;;;;;;;;;;;;5084122;28;1259;-73
2022/05/09 07:32:02;;;;;;;;;;;;;;;;;;5084564;28;1185;-74
2022/05/09 07:34:27;;;;;;;;;;;;;;;;;;5087554;28;1356;-74
2022/05/09 07:36:55;;;;;;;;;;;;;;;;;;5104481;28;1199;-75
2022/05/09 07:39:21;;;;;;;;;;;;;;;;;;5072972;28;1233;-75
2022/05/09 07:41:46;;;;;;;;;;;;;;;;;;5081599;28;1175;-75
2022/05/09 07:44:11;;;;;;;;;;;;;;;;;;5064115;28;1274;-74
2022/05/09 07:46:36;;;;;;;;;;;;;;;;;;5065181;28;1957;-74
2022/05/09 07:49:02;;;;;;;;;;;;;;;;;;5081717;28;1187;-74
2022/05/09 07:51:27;;;;;;;;;;;;;;;;;;5084230;28;1180;-73
2022/05/09 07:53:59;;;;;;;;;;;;;;;;;;5084486;28;1396;-75
2022/05/09 07:56:24;;;;;;;;;;;;;;;;;;5096488;28;1316;-81
2022/05/09 07:58:49;;;;;;;;;;;;;;;;;;5086885;28;1113;-82
2022/05/09 08:01:15;;;;;;;;;;;;;;;;;;5067357;28;1207;-82
2022/05/09 08:03:42;;;;;;;;;;;;;;;;;;5090719;28;1251;-82
2022/05/09 08:06:07;;;;;;;;;;;;;;;;;;5085292;28;1890;-82
2022/05/09 08:08:36;;;;;;;;;;;;;;;;;;5066854;28;1163;-80
2022/05/09 08:11:02;;;;;;;;;;;;;;;;;;5085374;28;1375;-80
2022/05/09 08:13:30;;;;;;;;;;;;;;;;;;5105301;28;1266;-80
2022/05/09 08:15:59;;;;;;;;;;;;;;;;;;5089897;28;1292;-81
2022/05/09 08:18:25;;;;;;;;;;;;;;;;;;5085223;28;1368;-76
2022/05/09 08:20:53;;;;;;;;;;;;;;;;;;5068222;28;1380;-76
2022/05/09 08:23:19;;;;;;;;;;;;;;;;;;5084531;28;1086;-75
2022/05/09 08:25:46;;;;;;;;;;;;;;;;;;5084005;28;1263;-76
2022/05/09 08:28:11;;;;;;;;;;;;;;;;;;5084285;28;1885;-76
2022/05/09 08:30:37;;;;;;;;;;;;;;;;;;5084365;28;1322;-76
2022/05/09 08:33:03;;;;;;;;;;;;;;;;;;5084439;28;1183;-76
2022/05/09 08:35:29;;;;;;;;;;;;;;;;;;5085933;28;1200;-74
2022/05/09 08:37:55;;;;;;;;;;;;;;;;;;5086094;28;1329;-75
2022/05/09 08:40:26;;;;;;;;;;;;;;;;;;5085069;28;1222;-75
2022/05/09 08:42:59;;;;;;;;;;;;;;;;;;5081432;28;1322;-74
2022/05/09 08:45:25;;;;;;;;;;;;;;;;;;5084006;28;1363;-74
2022/05/09 08:48:14;;;;;;;;;;;;;;;;;;5085999;28;1921;-74
2022/05/09 08:50:39;;;;;;;;;;;;;;;;;;5086575;28;1139;-75
2022/05/09 08:53:12;;;;;;;;;;;;;;;;;;5084985;28;1235;-74
2022/05/09 08:55:41;;;;;;;;;;;;;;;;;;5082961;28;1242;-75
2022/05/09 08:58:16;;;;;;;;;;;;;;;;;;5081090;28;1360;-74
2022/05/09 09:00:41;;;;;;;;;;;;;;;;;;5084850;28;1211;-74
2022/05/09 09:03:13;;;;;;;;;;;;;;;;;;5083013;28;1168;-75
2022/05/09 09:05:40;;;;;;;;;;;;;;;;;;5084616;28;1496;-74
2022/05/09 09:08:14;;;;;;;;;;;;;;;;;;5084020;28;1874;-74
2022/05/09 09:10:42;;;;;;;;;;;;;;;;;;5102043;28;1178;-74
2022/05/09 09:13:26;;;;;;;;;;;;;;;;;;5101633;28;1141;-74
2022/05/09 09:16:03;;;;;;;;;;;;;;;;;;5103035;28;1172;-73
2022/05/09 09:18:47;;;;;;;;;;;;;;;;;;5103165;28;1336;-74
2022/05/09 09:21:28;;;;;;;;;;;;;;;;;;5103193;28;1194;-75
2022/05/09 09:24:05;;;;;;;;;;;;;;;;;;5103806;28;1250;-74
2022/05/09 09:26:53;;;;;;;;;;;;;;;;;;5097411;28;1878;-74
2022/05/09 09:29:22;;;;;;;;;;;;;;;;;;5102855;28;1545;-75
2022/05/09 09:31:55;;;;;;;;;;;;;;;;;;5104658;28;1206;-75
2022/05/09 09:34:39;;;;;;;;;;;;;;;;;;5102476;28;1189;-75
2022/05/09 09:37:11;;;;;;;;;;;;;;;;;;5097307;28;1214;-74
2022/05/09 09:39:36;;;;;;;;;;;;;;;;;;5083087;28;1302;-74
2022/05/09 09:42:05;;;;;;;;;;;;;;;;;;5083338;28;1382;-74
2022/05/09 09:44:34;;;;;;;;;;;;;;;;;;5102589;28;1183;-73
2022/05/09 09:47:05;;;;;;;;;;;;;;;;;;5094908;28;2005;-85
2022/05/09 09:49:32;;;;;;;;;;;;;;;;;;5091314;28;1202;-86
2022/05/09 09:51:57;;;;;;;;;;;;;;;;;;5090906;28;1339;-87
2022/05/09 09:54:33;;;;;;;;;;;;;;;;;;5088499;28;1211;-84
2022/05/09 09:57:22;;;;;;;;;;;;;;;;;;5086162;28;1338;-86
2022/05/09 09:59:48;;;;;;;;;;;;;;;;;;5102336;28;1289;-86
2022/05/09 10:02:16;;;;;;;;;;;;;;;;;;5096205;28;1219;-87
2022/05/09 10:04:42;;;;;;;;;;;;;;;;;;5096792;28;1306;-84
2022/05/09 10:07:12;;;;;;;;;;;;;;;;;;5083755;28;1914;-85
2022/05/09 10:09:39;;;;;;;;;;;;;;;;;;5101547;28;1099;-82
2022/05/09 10:12:14;;;;;;;;;;;;;;;;;;5086608;28;1408;-86
2022/05/09 10:14:40;;;;;;;;;;;;;;;;;;5087865;28;1305;-87
2022/05/09 10:17:24;;;;;;;;;;;;;;;;;;5103258;28;1161;-89
2022/05/09 10:19:51;;;;;;;;;;;;;;;;;;5095107;28;1357;-88
2022/05/09 10:25:56;;;;;;;;;;;;;;;;;;5063868;28;1393;-85
2022/05/09 10:28:22;;;;;;;;;;;;;;;;;;5095547;28;1922;-85
2022/05/09 10:30:58;;;;;;;;;;;;;;;;;;5088247;28;1203;-85
2022/05/09 10:33:31;;;;;;;;;;;;;;;;;;5067540;28;1214;-85
2022/05/09 10:35:57;;;;;;;;;;;;;;;;;;5065794;28;1103;-87
2022/05/09 10:38:34;;;;;;;;;;;;;;;;;;5085929;28;1190;-85
2022/05/09 10:41:10;;;;;;;;;;;;;;;;;;5068218;28;1209;-86
2022/05/09 10:43:42;;;;;;;;;;;;;;;;;;5071616;28;1234;-85
2022/05/09 10:46:18;;;;;;;;;;;;;;;;;;5073776;28;1199;-83
2022/05/09 10:48:52;;;;;;;;;;;;;;;;;;5074543;28;1175;-87
2022/05/09 10:51:25;;;;;;;;;;;;;;;;;;5072323;28;1140;-88
2022/05/09 10:54:29;;;;;;;;;;;;;;;;;;5088164;28;1172;-89
2022/05/09 10:57:15;;;;;;;;;;;;;;;;;;5064140;28;1215;-88
2022/05/09 10:59:42;;;;;;;;;;;;;;;;;;5070366;28;1395;-85
2022/05/09 11:02:33;;;;;;;;;;;;;;;;;;5087944;28;1147;-81
2022/05/09 11:04:59;;;;;;;;;;;;;;;;;;5065364;28;1324;-87
2022/05/09 11:07:35;;;;;;;;;;;;;;;;;;5068141;28;1926;-87
2022/05/09 11:10:07;;;;;;;;;;;;;;;;;;5065977;28;1285;-86
2022/05/09 11:12:51;;;;;;;;;;;;;;;;;;5065338;28;1252;-87
2022/05/09 11:15:29;;;;;;;;;;;;;;;;;;5068652;28;1227;-83
2022/05/09 11:18:10;;;;;;;;;;;;;;;;;;5087456;28;1199;-87
2022/05/09 11:20:52;;;;;;;;;;;;;;;;;;5069672;28;1438;-88
2022/05/09 11:23:36;;;;;;;;;;;;;;;;;;5060569;28;1202;-87
2022/05/09 11:26:05;;;;;;;;;;;;;;;;;;5066811;28;1315;-86
2022/05/09 11:28:31;;;;;;;;;;;;;;;;;;5069030;28;1925;-86
2022/05/09 11:31:15;;;;;;;;;;;;;;;;;;5100933;28;1312;-83
2022/05/09 11:33:59;;;;;;;;;;;;;;;;;;5102057;28;1180;-87
2022/05/09 11:36:37;;;;;;;;;;;;;;;;;;5090113;28;1168;-90
2022/05/09 11:39:20;;;;;;;;;;;;;;;;;;5096884;28;1303;-87
2022/05/09 11:41:56;;;;;;;;;;;;;;;;;;5094245;28;1197;-88
2022/05/09 11:44:24;;;;;;;;;;;;;;;;;;5094968;28;1325;-89
2022/05/09 11:47:08;;;;;;;;;;;;;;;;;;5099034;28;1941;-88
2022/05/09 11:49:52;;;;;;;;;;;;;;;;;;5094357;28;1127;-88
2022/05/09 11:52:24;;;;;;;;;;;;;;;;;;5084727;28;1322;-88
2022/05/09 11:54:50;;;;;;;;;;;;;;;;;;5086876;28;1212;-88
2022/05/09 11:57:16;;;;;;;;;;;;;;;;;;5078443;28;1447;-87
2022/05/09 11:59:49;;;;;;;;;;;;;;;;;;5096612;28;1200;-86
2022/05/09 12:02:15;;;;;;;;;;;;;;;;;;5100555;28;1239;-88
2022/05/09 12:04:45;;;;;;;;;;;;;;;;;;5085204;28;1286;-88
2022/05/09 12:07:26;;;;;;;;;;;;;;;;;;5092159;28;1993;-88
2022/05/09 12:10:15;;;;;;;;;;;;;;;;;;5092894;28;1297;-88
2022/05/09 12:12:45;;;;;;;;;;;;;;;;;;5098561;28;1513;-87
2022/05/09 12:15:30;;;;;;;;;;;;;;;;;;5101466;28;1361;-89
2022/05/09 12:18:00;;;;;;;;;;;;;;;;;;5093144;28;1479;-84
2022/05/09 12:20:28;;;;;;;;;;;;;;;;;;5079376;28;1227;-73
2022/05/09 12:22:56;;;;;;;;;;;;;;;;;;5083098;28;1270;-74
2022/05/09 12:26:03;;;;;;;;;;;;;;;;;;5079525;28;1068;-74
2022/05/09 12:28:35;;;;;;;;;;;;;;;;;;5081852;28;1894;-74
2022/05/09 12:31:04;;;;;;;;;;;;;;;;;;5082699;28;1315;-73
2022/05/09 12:33:36;;;;;;;;;;;;;;;;;;5081116;28;1237;-73
2022/05/09 12:36:05;;;;;;;;;;;;;;;;;;5082894;28;1298;-73
2022/05/09 12:38:33;;;;;;;;;;;;;;;;;;5091228;28;1179;-74
2022/05/09 12:41:09;;;;;;;;;;;;;;;;;;5099534;28;1184;-74
2022/05/09 12:43:35;;;;;;;;;;;;;;;;;;5101940;28;1236;-74
2022/05/09 12:46:01;;;;;;;;;;;;;;;;;;5103839;28;1120;-74
2022/05/09 12:48:26;;;;;;;;;;;;;;;;;;5103962;28;1914;-74
2022/05/09 12:50:52;;;;;;;;;;;;;;;;;;5103641;28;1563;-74
2022/05/09 12:53:21;;;;;;;;;;;;;;;;;;5085141;28;1246;-75
2022/05/09 12:56:00;;;;;;;;;;;;;;;;;;5102426;28;1171;-74
2022/05/09 12:58:32;;;;;;;;;;;;;;;;;;5102490;28;1316;-74
2022/05/09 13:01:24;;;;;;;;;;;;;;;;;;5106119;28;1159;-75
2022/05/09 13:03:54;;;;;;;;;;;;;;;;;;5100019;28;1505;-74
2022/05/09 13:06:21;;;;;;;;;;;;;;;;;;5102558;28;1874;-74
2022/05/09 13:08:48;;;;;;;;;;;;;;;;;;5101972;28;1356;-74
2022/05/09 13:11:16;;;;;;;;;;;;;;;;;;5101310;28;1143;-75
2022/05/09 13:13:45;;;;;;;;;;;;;;;;;;5098542;28;1256;-74
2022/05/09 13:16:17;;;;;;;;;;;;;;;;;;5082555;28;1175;-74
2022/05/09 13:18:45;;;;;;;;;;;;;;;;;;5082208;28;1186;-75
2022/05/09 13:21:11;;;;;;;;;;;;;;;;;;5083140;28;1262;-74
2022/05/09 13:23:39;;;;;;;;;;;;;;;;;;5063309;28;1246;-75
2022/05/09 13:26:06;;;;;;;;;;;;;;;;;;5080993;28;1167;-75
2022/05/09 13:28:40;;;;;;;;;;;;;;;;;;5082855;28;1897;-73
2022/05/09 13:31:06;;;;;;;;;;;;;;;;;;5083694;28;1167;-75
2022/05/09 13:33:33;;;;;;;;;;;;;;;;;;5085514;28;1357;-72
2022/05/09 13:36:02;;;;;;;;;;;;;;;;;;5086972;28;1182;-76
2022/05/09 13:38:36;;;;;;;;;;;;;;;;;;5084322;28;1175;-74
2022/05/09 13:41:04;;;;;;;;;;;;;;;;;;5084179;28;1148;-74
2022/05/09 13:43:31;;;;;;;;;;;;;;;;;;5085907;28;1537;-74
2022/05/09 13:46:00;;;;;;;;;;;;;;;;;;5087348;28;1210;-74
2022/05/09 13:48:27;;;;;;;;;;;;;;;;;;5086878;28;1913;-74
2022/05/09 13:50:52;;;;;;;;;;;;;;;;;;5086087;28;1137;-74
2022/05/09 13:53:26;;;;;;;;;;;;;;;;;;5092245;28;1286;-79
2022/05/09 13:55:52;;;;;;;;;;;;;;;;;;5104557;28;1299;-75
2022/05/09 13:58:22;;;;;;;;;;;;;;;;;;5105783;28;1348;-75
2022/05/09 14:00:50;;;;;;;;;;;;;;;;;;5096504;28;1277;-76
2022/05/09 14:03:21;;;;;;;;;;;;;;;;;;5085697;28;1179;-74
2022/05/09 14:05:47;;;;;;;;;;;;;;;;;;5085687;28;1127;-75
2022/05/09 14:08:13;;;;;;;;;;;;;;;;;;5105623;28;1885;-76
2022/05/09 14:10:40;;;;;;;;;;;;;;;;;;5107198;28;1006;-75
2022/05/09 14:13:25;;;;;;;;;;;;;;;;;;5109941;28;1136;-75
2022/05/09 14:15:57;;;;;;;;;;;;;;;;;;5106820;28;1214;-76
2022/05/09 14:18:27;;;;;;;;;;;;;;;;;;5106984;28;1144;-76
2022/05/09 14:20:58;;;;;;;;;;;;;;;;;;5106870;28;1299;-75
2022/05/09 14:23:26;;;;;;;;;;;;;;;;;;5105043;28;1315;-76
2022/05/09 14:31:51;;;;;;;;;;;;;;;;;;5107538;28;1026;-74
2022/05/09 14:34:39;;;;;;;;;;;;;;;;;;5108792;28;1193;-73
2022/05/09 14:37:08;;;;;;;;;;;;;;;;;;5099518;28;1202;-73
2022/05/09 14:39:38;;;;;;;;;;;;;;;;;;5104953;27;1139;-73
2022/05/09 14:42:04;;;;;;;;;;;;;;;;;;5105340;28;1103;-75
2022/05/09 14:44:33;;;;;;;;;;;;;;;;;;5104275;28;1329;-74
2022/05/09 14:47:13;;;;;;;;;;;;;;;;;;5106764;28;1973;-74
2022/05/09 14:49:49;;;;;;;;;;;;;;;;;;5106289;28;1792;-74
2022/05/09 14:52:23;;;;;;;;;;;;;;;;;;5107486;28;1198;-74
2022/05/09 14:57:54;;;;;;;;;;;;;;;;;;5071104;28;1228;-73
2022/05/09 15:00:26;;;;;;;;;;;;;;;;;;5085454;28;1431;-75
2022/05/09 15:03:00;;;;;;;;;;;;;;;;;;5086168;28;1198;-74
2022/05/09 15:05:25;;;;;;;;;;;;;;;;;;5087997;28;1272;-74
2022/05/09 15:07:52;;;;;;;;;;;;;;;;;;5084612;28;1922;-73
2022/05/09 15:10:18;;;;;;;;;;;;;;;;;;5085824;28;1257;-74
2022/05/09 15:12:43;;;;;;;;;;;;;;;;;;5083248;28;1564;-74
2022/05/09 15:15:08;;;;;;;;;;;;;;;;;;5089552;28;815;-73
2022/05/09 15:17:34;;;;;;;;;;;;;;;;;;5085806;28;1160;-73
2022/05/09 15:19:59;;;;;;;;;;;;;;;;;;5070098;28;1174;-73
2022/05/09 15:22:24;;;;;;;;;;;;;;;;;;5086583;28;1167;-75
2022/05/09 15:24:50;;;;;;;;;;;;;;;;;;5083603;28;786;-75
2022/05/09 15:27:17;;;;;;;;;;;;;;;;;;5081389;28;1938;-77
2022/05/09 15:29:42;;;;;;;;;;;;;;;;;;5078756;28;1350;-75
2022/05/09 15:32:11;;;;;;;;;;;;;;;;;;5065458;28;1157;-75
2022/05/09 15:34:36;;;;;;;;;;;;;;;;;;5080016;28;1471;-74
2022/05/09 15:37:01;;;;;;;;;;;;;;;;;;5085280;28;1191;-74
2022/05/09 15:39:29;;;;;;;;;;;;;;;;;;5099493;28;1204;-75
2022/05/09 15:41:54;;;;;;;;;;;;;;;;;;5074318;28;1189;-75
2022/05/09 15:44:21;;;;;;;;;;;;;;;;;;5064717;28;1313;-73
2022/05/09 15:46:47;;;;;;;;;;;;;;;;;;5082262;28;1913;-74
2022/05/09 15:49:22;;;;;;;;;;;;;;;;;;5064533;28;1428;-74
2022/05/09 15:51:48;;;;;;;;;;;;;;;;;;5079959;28;1344;-75
2022/05/09 15:54:13;;;;;;;;;;;;;;;;;;5090566;28;1172;-74
2022/05/09 15:56:41;;;;;;;;;;;;;;;;;;5088507;28;1163;-74
2022/05/09 15:59:07;;;;;;;;;;;;;;;;;;5083171;28;1144;-75
2022/05/09 16:01:33;;;;;;;;;;;;;;;;;;5080478;28;1144;-74
2022/05/09 16:04:00;;;;;;;;;;;;;;;;;;5080777;28;1281;-75
2022/05/09 16:11:53;;;;;;;;;;;;;;;;;;5077743;28;1032;-74
2022/05/09 16:14:22;;;;;;;;;;;;;;;;;;5081884;28;1227;-74
2022/05/09 16:16:52;;;;;;;;;;;;;;;;;;5087917;28;1194;-72
2022/05/09 16:19:21;;;;;;;;;;;;;;;;;;5083503;28;1300;-74
2022/05/09 16:21:46;;;;;;;;;;;;;;;;;;5097657;28;1239;-72
2022/05/09 16:24:13;;;;;;;;;;;;;;;;;;5097705;28;1196;-73
2022/05/09 16:26:42;;;;;;;;;;;;;;;;;;5095657;28;1960;-73
2022/05/09 16:29:09;;;;;;;;;;;;;;;;;;5098386;28;1319;-73
2022/05/09 16:31:35;;;;;;;;;;;;;;;;;;5100183;28;1468;-72
2022/05/09 16:34:06;;;;;;;;;;;;;;;;;;5098403;28;1175;-71
2022/05/09 16:36:31;;;;;;;;;;;;;;;;;;5100747;28;1151;-73
2022/05/09 16:38:56;;;;;;;;;;;;;;;;;;5096632;28;1192;-72
2022/05/09 16:41:22;;;;;;;;;;;;;;;;;;5094694;28;1198;-72
2022/05/09 16:43:48;;;;;;;;;;;;;;;;;;5071694;28;1205;-72
2022/05/09 16:46:16;;;;;;;;;;;;;;;;;;5066327;28;1233;-72
2022/05/09 16:48:45;;;;;;;;;;;;;;;;;;5081245;28;1980;-72
2022/05/09 16:51:11;;;;;;;;;;;;;;;;;;5086238;28;1246;-71
2022/05/09 16:53:36;;;;;;;;;;;;;;;;;;5088818;28;1095;-72
2022/05/09 16:56:02;;;;;;;;;;;;;;;;;;5081764;28;1222;-71
2022/05/09 16:58:27;;;;;;;;;;;;;;;;;;5102684;28;1238;-73
2022/05/09 17:00:53;;;;;;;;;;;;;;;;;;5083388;28;1295;-73
2022/05/09 17:03:19;;;;;;;;;;;;;;;;;;5102476;28;1195;-72
2022/05/09 17:05:44;;;;;;;;;;;;;;;;;;5100849;28;1142;-72
2022/05/09 17:08:10;;;;;;;;;;;;;;;;;;5100508;28;1947;-74
2022/05/09 17:10:37;;;;;;;;;;;;;;;;;;5086203;28;1307;-75
2022/05/09 17:13:04;;;;;;;;;;;;;;;;;;5065327;28;1204;-75
2022/05/09 17:15:32;;;;;;;;;;;;;;;;;;5088400;28;1230;-75
2022/05/09 17:17:57;;;;;;;;;;;;;;;;;;5085538;28;1361;-74
2022/05/09 17:20:24;;;;;;;;;;;;;;;;;;5069632;28;1238;-76
2022/05/09 17:22:51;;;;;;;;;;;;;;;;;;5087491;28;1113;-75
2022/05/09 17:25:17;;;;;;;;;;;;;;;;;;5097761;28;1159;-75
2022/05/09 17:27:43;;;;;;;;;;;;;;;;;;5085113;28;1953;-75
2022/05/09 17:30:10;;;;;;;;;;;;;;;;;;5106478;28;1259;-75
2022/05/09 17:32:36;;;;;;;;;;;;;;;;;;5107963;28;813;-74
2022/05/09 17:35:01;;;;;;;;;;;;;;;;;;5105929;28;888;-75
2022/05/09 17:37:26;;;;;;;;;;;;;;;;;;5106616;27;806;-74
2022/05/09 17:39:52;;;;;;;;;;;;;;;;;;5103052;28;1150;-74
2022/05/09 17:42:22;;;;;;;;;;;;;;;;;;5083546;28;1370;-75
2022/05/09 17:44:49;;;;;;;;;;;;;;;;;;5105315;28;797;-74